RAPTOR KFFO-KFFO
Flight info
| Callsign | RAPTOR |
|---|---|
| Flight time | N/A |
| Altitude | 42000 |
| Route | WAMBO MIE BVT 4116N08807W 4225N08840W 4226N08836W 4117N08803W 4118N08758W 4227N08832W 4228N08827W 4119N08754W 4120N08750W 4229N08823W 4230N08819W 4122N08745W 4123N08741W 4231N08814W 4233N08810W 4124N08737W 4125N08733W 4234N08806W 4235N08802W 4126N08728W 4127N08724W 4236N08757W 4237N08753W 4128N08720W |
| Aircraft | F35/M-SDE2E3FGHIRWXY/LB1 |
Departure
| Time | 2026-05-04 04:27 |
|---|---|
| Airport | Wright-Patterson Air Force Base (KFFO) |
Arrival
| Time | N/A |
|---|---|
| Airport | Wright-Patterson Air Force Base (KFFO) |
| Time | Latitude | Longitude | Altitude | Speed | Heading |
|---|---|---|---|---|---|
| 2026-05-04 04:25 | 39.81560 | -84.06410 | 832 ft | 0 kts | 49° |
| 2026-05-04 04:27 | 39.81638 | -84.06292 | 832 ft | 79 kts | 50° |
| 2026-05-04 04:27 | 39.82438 | -84.05092 | 832 ft | 271 kts | 50° |
| 2026-05-04 04:27 | 39.83981 | -84.02725 | 2468 ft | 407 kts | 52° |
| 2026-05-04 04:28 | 39.85099 | -84.00701 | 4453 ft | 502 kts | 56° |
| 2026-05-04 04:29 | 39.85228 | -84.00451 | 4682 ft | 512 kts | 57° |
| 2026-05-04 04:29 | 39.87312 | -83.96064 | 8474 ft | 619 kts | 59° |
| 2026-05-04 04:29 | 39.89670 | -83.90850 | 12476 ft | 714 kts | 60° |
| 2026-05-04 04:29 | 39.92291 | -83.84844 | 16217 ft | 804 kts | 60° |
| 2026-05-04 04:30 | 39.94838 | -83.79113 | 19030 ft | 878 kts | 59° |
| 2026-05-04 04:30 | 39.98027 | -83.71850 | 21711 ft | 944 kts | 60° |
| 2026-05-04 04:30 | 40.01244 | -83.64236 | 23472 ft | 990 kts | 61° |
| 2026-05-04 04:30 | 40.04390 | -83.56457 | 27827 ft | 936 kts | 63° |
| 2026-05-04 04:31 | 40.07247 | -83.49089 | 34602 ft | 867 kts | 61° |
| 2026-05-04 04:31 | 40.09904 | -83.42229 | 41909 ft | 826 kts | 63° |
| 2026-05-04 04:31 | 40.12430 | -83.35665 | 47526 ft | 799 kts | 63° |
| 2026-05-04 04:31 | 40.14895 | -83.29214 | 51508 ft | 782 kts | 63° |
| 2026-05-04 04:32 | 40.17320 | -83.22850 | 53760 ft | 776 kts | 64° |
| 2026-05-04 04:32 | 40.19629 | -83.16589 | 55249 ft | 769 kts | 64° |
| 2026-05-04 04:32 | 40.21928 | -83.10308 | 56488 ft | 762 kts | 64° |
| 2026-05-04 04:32 | 40.24208 | -83.04061 | 57568 ft | 755 kts | 64° |
| 2026-05-04 04:33 | 40.26459 | -82.97884 | 58460 ft | 749 kts | 64° |
| 2026-05-04 04:33 | 40.28694 | -82.91741 | 59128 ft | 745 kts | 64° |
| 2026-05-04 04:33 | 40.30929 | -82.85591 | 59544 ft | 743 kts | 64° |
| 2026-05-04 04:33 | 40.33119 | -82.79556 | 59713 ft | 745 kts | 64° |
| 2026-05-04 04:34 | 40.37612 | -82.67158 | 59499 ft | 755 kts | 64° |
| 2026-05-04 04:34 | 40.39824 | -82.61045 | 60547 ft | 708 kts | 64° |
| 2026-05-04 04:34 | 40.41835 | -82.55485 | 63698 ft | 644 kts | 64° |
| 2026-05-04 04:35 | 40.43668 | -82.50410 | 66178 ft | 604 kts | 64° |
| 2026-05-04 04:35 | 40.45450 | -82.45474 | 66727 ft | 595 kts | 64° |
| 2026-05-04 04:35 | 40.47243 | -82.40505 | 65584 ft | 599 kts | 64° |
| 2026-05-04 04:35 | 40.49034 | -82.35542 | 64435 ft | 604 kts | 64° |
| 2026-05-04 04:36 | 40.50834 | -82.30551 | 62984 ft | 618 kts | 64° |
| 2026-05-04 04:36 | 40.52610 | -82.25623 | 63285 ft | 547 kts | 64° |
| 2026-05-04 04:36 | 40.54088 | -82.21517 | 65830 ft | 461 kts | 64° |
| 2026-05-04 04:36 | 40.55460 | -82.17705 | 65854 ft | 463 kts | 64° |
| 2026-05-04 04:37 | 40.59854 | -82.05491 | 60426 ft | 510 kts | 64° |
| 2026-05-04 04:37 | 40.61358 | -82.01310 | 60037 ft | 497 kts | 64° |
| 2026-05-04 04:38 | 40.62811 | -81.97268 | 59999 ft | 480 kts | 64° |
| 2026-05-04 04:38 | 40.64212 | -81.93370 | 59968 ft | 462 kts | 64° |
| 2026-05-04 04:38 | 40.65556 | -81.89629 | 59807 ft | 448 kts | 64° |
| 2026-05-04 04:38 | 40.66886 | -81.85923 | 59452 ft | 437 kts | 64° |
| 2026-05-04 04:39 | 40.68168 | -81.82352 | 59024 ft | 426 kts | 64° |
| 2026-05-04 04:39 | 40.69408 | -81.78898 | 58534 ft | 417 kts | 64° |
| 2026-05-04 04:39 | 40.70644 | -81.75452 | 57950 ft | 411 kts | 64° |
| 2026-05-04 04:39 | 40.71855 | -81.72076 | 57305 ft | 406 kts | 64° |
| 2026-05-04 04:40 | 40.73065 | -81.68700 | 56586 ft | 410 kts | 64° |
| 2026-05-04 04:40 | 40.74348 | -81.65123 | 51859 ft | 471 kts | 64° |
| 2026-05-04 04:40 | 40.75963 | -81.60624 | 44292 ft | 642 kts | 64° |
| 2026-05-04 04:40 | 40.78145 | -81.54558 | 38220 ft | 803 kts | 64° |
| 2026-05-04 04:41 | 40.80760 | -81.47482 | 33220 ft | 919 kts | 64° |
| 2026-05-04 04:41 | 40.83716 | -81.39653 | 31326 ft | 969 kts | 62° |
| 2026-05-04 04:41 | 40.86905 | -81.31701 | 31215 ft | 987 kts | 62° |
| 2026-05-04 04:41 | 40.90167 | -81.23696 | 31756 ft | 984 kts | 62° |
| 2026-05-04 04:42 | 40.93390 | -81.15741 | 32890 ft | 982 kts | 62° |
| 2026-05-04 04:42 | 40.96595 | -81.07745 | 33287 ft | 983 kts | 62° |
| 2026-05-04 04:42 | 40.98730 | -81.02411 | 32970 ft | 986 kts | 62° |
| 2026-05-04 04:42 | 41.01942 | -80.94382 | 32645 ft | 988 kts | 62° |
| 2026-05-04 04:43 | 41.06215 | -80.83697 | 32285 ft | 990 kts | 62° |
| 2026-05-04 04:43 | 41.08351 | -80.78353 | 32111 ft | 990 kts | 62° |
| 2026-05-04 04:43 | 41.11584 | -80.70259 | 31984 ft | 990 kts | 62° |
| 2026-05-04 04:43 | 41.14806 | -80.62192 | 31971 ft | 990 kts | 62° |
| 2026-05-04 04:44 | 41.21256 | -80.46026 | 31968 ft | 989 kts | 62° |
| 2026-05-04 04:44 | 41.27712 | -80.29831 | 31984 ft | 988 kts | 62° |
| 2026-05-04 04:45 | 41.34109 | -80.13771 | 31983 ft | 987 kts | 62° |
| 2026-05-04 04:47 | 41.57501 | -79.57689 | 31721 ft | 990 kts | 60° |
| 2026-05-04 04:47 | 41.60703 | -79.49964 | 30314 ft | 899 kts | 62° |
| 2026-05-04 04:47 | 41.63220 | -79.42874 | 30994 ft | 805 kts | 66° |
| 2026-05-04 04:47 | 41.65341 | -79.35598 | 30976 ft | 866 kts | 71° |
| 2026-05-04 04:48 | 41.66552 | -79.28003 | 31796 ft | 812 kts | 86° |
| 2026-05-04 04:49 | 41.63823 | -79.05535 | 31653 ft | 447 kts | 102° |
| 2026-05-04 04:49 | 41.63202 | -79.01705 | 31967 ft | 400 kts | 102° |
| 2026-05-04 04:49 | 41.62623 | -78.98146 | 31222 ft | 389 kts | 102° |
| 2026-05-04 04:49 | 41.62055 | -78.94516 | 29010 ft | 406 kts | 93° |
| 2026-05-04 04:50 | 41.61751 | -78.90861 | 28346 ft | 376 kts | 95° |
| 2026-05-04 04:50 | 41.61516 | -78.87627 | 28938 ft | 327 kts | 95° |
| 2026-05-04 04:50 | 41.61290 | -78.84628 | 29366 ft | 340 kts | 95° |
| 2026-05-04 04:50 | 41.61057 | -78.81532 | 31212 ft | 302 kts | 95° |
| 2026-05-04 04:51 | 41.60864 | -78.78979 | 31822 ft | 263 kts | 95° |
| 2026-05-04 04:51 | 41.60676 | -78.76492 | 31013 ft | 279 kts | 95° |
| 2026-05-04 04:51 | 41.60474 | -78.73818 | 30522 ft | 314 kts | 95° |
| 2026-05-04 04:51 | 41.60226 | -78.70564 | 30589 ft | 391 kts | 96° |
| 2026-05-04 04:52 | 41.59914 | -78.66544 | 30788 ft | 475 kts | 96° |
| 2026-05-04 04:52 | 41.59544 | -78.61816 | 31231 ft | 530 kts | 96° |
| 2026-05-04 04:52 | 41.59111 | -78.56661 | 31759 ft | 585 kts | 96° |
| 2026-05-04 04:52 | 41.58600 | -78.51144 | 31376 ft | 628 kts | 97° |
| 2026-05-04 04:53 | 41.57960 | -78.45000 | 31006 ft | 711 kts | 98° |
| 2026-05-04 04:53 | 41.57006 | -78.38099 | 31262 ft | 796 kts | 102° |
| 2026-05-04 04:53 | 41.55580 | -78.30651 | 31065 ft | 832 kts | 106° |
| 2026-05-04 04:53 | 41.54332 | -78.23723 | 31842 ft | 647 kts | 98° |
| 2026-05-04 04:54 | 41.53742 | -78.18530 | 36227 ft | 493 kts | 98° |
| 2026-05-04 04:54 | 41.53308 | -78.14263 | 35022 ft | 443 kts | 99° |
| 2026-05-04 04:54 | 41.52551 | -78.10266 | 29985 ft | 476 kts | 103° |
| 2026-05-04 04:54 | 41.51959 | -78.06567 | 31268 ft | 369 kts | 99° |
| 2026-05-04 04:55 | 41.51477 | -78.03380 | 31482 ft | 353 kts | 102° |
| 2026-05-04 04:55 | 41.50890 | -77.99850 | 31476 ft | 416 kts | 103° |
| 2026-05-04 04:55 | 41.50162 | -77.95818 | 31650 ft | 469 kts | 104° |
| 2026-05-04 04:55 | 41.49318 | -77.91512 | 31751 ft | 476 kts | 105° |
| 2026-05-04 04:56 | 41.48684 | -77.87139 | 31862 ft | 481 kts | 98° |
| 2026-05-04 04:56 | 41.48515 | -77.82701 | 31619 ft | 494 kts | 85° |
| 2026-05-04 04:56 | 41.48720 | -77.78106 | 30436 ft | 477 kts | 88° |
| 2026-05-04 04:56 | 41.48462 | -77.73951 | 25964 ft | 446 kts | 97° |
| 2026-05-04 04:57 | 41.48029 | -77.70107 | 27758 ft | 390 kts | 99° |
| 2026-05-04 04:57 | 41.47587 | -77.66516 | 31573 ft | 407 kts | 99° |
| 2026-05-04 04:57 | 41.47114 | -77.62786 | 31437 ft | 402 kts | 101° |
| 2026-05-04 04:57 | 41.46045 | -77.59309 | 29829 ft | 404 kts | 119° |
| 2026-05-04 04:58 | 41.45114 | -77.55991 | 29865 ft | 377 kts | 101° |
| 2026-05-04 04:58 | 41.44701 | -77.52381 | 30300 ft | 439 kts | 99° |
| 2026-05-04 04:58 | 41.44142 | -77.47982 | 30595 ft | 522 kts | 100° |
| 2026-05-04 04:58 | 41.43447 | -77.43081 | 30793 ft | 537 kts | 101° |
| 2026-05-04 04:59 | 41.42064 | -77.33105 | 31006 ft | 562 kts | 99° |
| 2026-05-04 04:59 | 41.41445 | -77.28001 | 30902 ft | 554 kts | 100° |
| 2026-05-04 04:59 | 41.40708 | -77.23076 | 30715 ft | 540 kts | 102° |
| 2026-05-04 05:00 | 41.39933 | -77.18439 | 31030 ft | 473 kts | 102° |
| 2026-05-04 05:00 | 41.39171 | -77.14429 | 30584 ft | 425 kts | 103° |
| 2026-05-04 05:00 | 41.38420 | -77.07693 | 30936 ft | 312 kts | 111° |
| 2026-05-04 05:01 | 41.37670 | -77.05092 | 29957 ft | 215 kts | 114° |
| 2026-05-04 05:01 | 41.37726 | -77.04069 | 31490 ft | 84 kts | 103° |
| 2026-05-04 05:01 | 41.37682 | -77.03122 | 28589 ft | 149 kts | 104° |
| 2026-05-04 05:01 | 41.37008 | -77.01339 | 24813 ft | 308 kts | 131° |
| 2026-05-04 05:02 | 41.34978 | -76.98860 | 14954 ft | 468 kts | 140° |
| 2026-05-04 05:02 | 41.31352 | -76.95925 | 1715 ft | 716 kts | 151° |
| 2026-05-04 05:02 | 41.28107 | -76.93098 | 1352 ft | 437 kts | 145° |
| 2026-05-04 05:02 | 41.25981 | -76.92084 | 1001 ft | 265 kts | 173° |
| 2026-05-04 05:03 | 41.24346 | -76.92065 | 538 ft | 206 kts | 180° |
| 2026-05-04 05:03 | 41.23008 | -76.92113 | 582 ft | 264 kts | 185° |